Terminal Aerodrome Forecast
Issued by NWS

Home | Current Version | Previous Version | Text Only | Print | Product List | Glossary On
Versions: 1 2 3 4 5 6 7 8 9 10 11 12 13
000
FTUS44 KBMX 291720
TAFTCL
TAF
KTCL 291720Z 2918/3018 17007KT P6SM BKN035
     FM300200 16006KT P6SM OVC015
     FM300500 20006KT 4SM -RA OVC005
     FM301000 22006KT 3SM RA VCTS OVC005CB=

USA.gov is the U.S. government's official web portal to all federal, state and local government web resources and services.